sensor_id;sensor_type;location;lat;lon;timestamp;pressure;altitude;pressure_sealevel;temperature;humidity
11329;BME280;5719;42.714;23.732;2024-01-30T00:01:02;96281.53;;;-0.84;75.34
11329;BME280;5719;42.714;23.732;2024-01-30T00:03:29;96281.53;;;-0.95;75.85
11329;BME280;5719;42.714;23.732;2024-01-30T00:05:56;96276.44;;;-1.04;75.56
11329;BME280;5719;42.714;23.732;2024-01-30T00:08:28;96288.28;;;-0.97;75.83
11329;BME280;5719;42.714;23.732;2024-01-30T00:10:55;96283.22;;;-0.95;75.87
11329;BME280;5719;42.714;23.732;2024-01-30T00:13:22;96297.59;;;-0.98;75.09
11329;BME280;5719;42.714;23.732;2024-01-30T00:15:49;96302.66;;;-1.07;75.07
11329;BME280;5719;42.714;23.732;2024-01-30T00:18:16;96294.19;;;-1.09;75.13
11329;BME280;5719;42.714;23.732;2024-01-30T00:20:44;96302.66;;;-1.07;75.35
11329;BME280;5719;42.714;23.732;2024-01-30T00:23:10;96293.34;;;-0.94;74.83
11329;BME280;5719;42.714;23.732;2024-01-30T00:25:38;96291.63;;;-1.06;74.95
11329;BME280;5719;42.714;23.732;2024-01-30T00:28:05;96288.22;;;-1.20;73.86
11329;BME280;5719;42.714;23.732;2024-01-30T00:30:32;96290.75;;;-1.20;74.16
11329;BME280;5719;42.714;23.732;2024-01-30T00:32:59;96290.81;;;-1.17;73.00
11329;BME280;5719;42.714;23.732;2024-01-30T00:35:25;96286.53;;;-1.24;70.99
11329;BME280;5719;42.714;23.732;2024-01-30T00:37:52;96297.53;;;-1.22;71.70
11329;BME280;5719;42.714;23.732;2024-01-30T00:40:19;96294.16;;;-1.21;72.77
11329;BME280;5719;42.714;23.732;2024-01-30T00:42:47;96292.47;;;-1.22;72.52
11329;BME280;5719;42.714;23.732;2024-01-30T00:45:14;96295.00;;;-1.23;72.91
11329;BME280;5719;42.714;23.732;2024-01-30T00:47:41;96299.22;;;-1.27;72.98
11329;BME280;5719;42.714;23.732;2024-01-30T00:50:08;96288.22;;;-1.23;73.17
11329;BME280;5719;42.714;23.732;2024-01-30T00:52:35;96303.44;;;-1.27;73.07
11329;BME280;5719;42.714;23.732;2024-01-30T00:55:02;96281.44;;;-1.34;72.13
11329;BME280;5719;42.714;23.732;2024-01-30T00:57:29;96302.56;;;-1.34;73.16
11329;BME280;5719;42.714;23.732;2024-01-30T00:59:57;96300.03;;;-1.34;72.62
11329;BME280;5719;42.714;23.732;2024-01-30T01:02:24;96302.56;;;-1.31;72.13
11329;BME280;5719;42.714;23.732;2024-01-30T01:04:50;96299.22;;;-1.27;72.14
11329;BME280;5719;42.714;23.732;2024-01-30T01:07:17;96297.53;;;-1.28;72.75
11329;BME280;5719;42.714;23.732;2024-01-30T01:09:44;96305.16;;;-1.28;71.59
11329;BME280;5719;42.714;23.732;2024-01-30T01:12:11;96291.59;;;-1.33;71.96
11329;BME280;5719;42.714;23.732;2024-01-30T01:14:37;96293.28;;;-1.27;72.35
11329;BME280;5719;42.714;23.732;2024-01-30T01:17:05;96298.38;;;-1.32;72.79
11329;BME280;5719;42.714;23.732;2024-01-30T01:19:32;96295.00;;;-1.28;72.65
11329;BME280;5719;42.714;23.732;2024-01-30T01:21:59;96298.34;;;-1.27;72.83
11329;BME280;5719;42.714;23.732;2024-01-30T01:24:26;96274.63;;;-1.48;72.05
11329;BME280;5719;42.714;23.732;2024-01-30T01:26:52;96283.13;;;-1.42;73.15
11329;BME280;5719;42.714;23.732;2024-01-30T01:29:19;96294.97;;;-1.37;72.03
11329;BME280;5719;42.714;23.732;2024-01-30T01:31:53;96283.97;;;-1.33;71.56
11329;BME280;5719;42.714;23.732;2024-01-30T01:34:21;96293.28;;;-1.36;71.50
11329;BME280;5719;42.714;23.732;2024-01-30T01:36:49;96285.66;;;-1.38;72.38
11329;BME280;5719;42.714;23.732;2024-01-30T01:39:16;96278.03;;;-1.42;72.88
11329;BME280;5719;42.714;23.732;2024-01-30T01:41:43;96283.94;;;-1.45;71.55
11329;BME280;5719;42.714;23.732;2024-01-30T01:44:09;96300.03;;;-1.43;71.78
11329;BME280;5719;42.714;23.732;2024-01-30T01:46:36;96291.59;;;-1.36;71.79
11329;BME280;5719;42.714;23.732;2024-01-30T01:49:05;96296.63;;;-1.37;71.69
11329;BME280;5719;42.714;23.732;2024-01-30T01:51:34;96292.44;;;-1.35;71.83
11329;BME280;5719;42.714;23.732;2024-01-30T01:54:03;96290.72;;;-1.41;71.75
11329;BME280;5719;42.714;23.732;2024-01-30T01:56:31;96297.50;;;-1.37;71.83
11329;BME280;5719;42.714;23.732;2024-01-30T01:59:00;96311.88;;;-1.36;71.55
11329;BME280;5719;42.714;23.732;2024-01-30T02:01:31;96303.41;;;-1.41;72.15
11329;BME280;5719;42.714;23.732;2024-01-30T02:03:59;96295.75;;;-1.49;71.46
11329;BME280;5719;42.714;23.732;2024-01-30T02:06:26;96300.00;;;-1.38;72.21
11329;BME280;5719;42.714;23.732;2024-01-30T02:08:54;96304.28;;;-1.33;71.89
11329;BME280;5719;42.714;23.732;2024-01-30T02:11:22;96303.44;;;-1.29;71.70
11329;BME280;5719;42.714;23.732;2024-01-30T02:13:49;96307.66;;;-1.31;71.56
11329;BME280;5719;42.714;23.732;2024-01-30T02:16:16;96301.72;;;-1.40;71.44
11329;BME280;5719;42.714;23.732;2024-01-30T02:18:43;96297.47;;;-1.43;71.38
11329;BME280;5719;42.714;23.732;2024-01-30T02:21:14;96299.13;;;-1.53;71.90
11329;BME280;5719;42.714;23.732;2024-01-30T02:23:43;96296.63;;;-1.46;70.47
11329;BME280;5719;42.714;23.732;2024-01-30T02:26:10;96300.84;;;-1.45;70.86
11329;BME280;5719;42.714;23.732;2024-01-30T02:28:37;96293.22;;;-1.45;70.13
11329;BME280;5719;42.714;23.732;2024-01-30T02:31:04;96298.31;;;-1.38;71.04
11329;BME280;5719;42.714;23.732;2024-01-30T02:33:31;96299.19;;;-1.33;69.86
11329;BME280;5719;42.714;23.732;2024-01-30T02:35:57;96294.97;;;-1.35;70.32
11329;BME280;5719;42.714;23.732;2024-01-30T02:38:26;96302.56;;;-1.31;69.94
11329;BME280;5719;42.714;23.732;2024-01-30T02:40:54;96291.59;;;-1.31;69.95
11329;BME280;5719;42.714;23.732;2024-01-30T02:43:22;96292.44;;;-1.32;70.12
11329;BME280;5719;42.714;23.732;2024-01-30T02:45:48;96302.56;;;-1.34;70.66
11329;BME280;5719;42.714;23.732;2024-01-30T02:48:15;96300.84;;;-1.44;71.49
11329;BME280;5719;42.714;23.732;2024-01-30T02:50:42;96300.84;;;-1.47;71.88
11329;BME280;5719;42.714;23.732;2024-01-30T02:53:09;96294.91;;;-1.55;72.37
11329;BME280;5719;42.714;23.732;2024-01-30T02:55:37;96289.00;;;-1.54;71.55
11329;BME280;5719;42.714;23.732;2024-01-30T02:58:04;96299.13;;;-1.51;71.61
11329;BME280;5719;42.714;23.732;2024-01-30T03:00:30;96297.44;;;-1.58;71.40
11329;BME280;5719;42.714;23.732;2024-01-30T03:02:57;96297.44;;;-1.58;72.44
11329;BME280;5719;42.714;23.732;2024-01-30T03:05:24;96292.31;;;-1.67;71.92
11329;BME280;5719;42.714;23.732;2024-01-30T03:07:51;96292.34;;;-1.57;72.40
11329;BME280;5719;42.714;23.732;2024-01-30T03:10:18;96276.31;;;-1.48;71.78
11329;BME280;5719;42.714;23.732;2024-01-30T03:12:46;96278.84;;;-1.51;71.58
11329;BME280;5719;42.714;23.732;2024-01-30T03:15:13;96285.63;;;-1.45;70.69
11329;BME280;5719;42.714;23.732;2024-01-30T03:17:40;96293.22;;;-1.50;71.26
11329;BME280;5719;42.714;23.732;2024-01-30T03:20:08;96277.97;;;-1.56;70.62
11329;BME280;5719;42.714;23.732;2024-01-30T03:22:35;96301.63;;;-1.63;71.82
11329;BME280;5719;42.714;23.732;2024-01-30T03:25:03;96289.81;;;-1.58;71.76
11329;BME280;5719;42.714;23.732;2024-01-30T03:27:29;96296.56;;;-1.62;71.19
11329;BME280;5719;42.714;23.732;2024-01-30T03:29:57;96291.50;;;-1.59;71.61
11329;BME280;5719;42.714;23.732;2024-01-30T03:32:24;96294.09;;;-1.46;71.65
11329;BME280;5719;42.714;23.732;2024-01-30T03:34:51;96292.41;;;-1.44;69.92
11329;BME280;5719;42.714;23.732;2024-01-30T03:37:18;96285.63;;;-1.47;70.78
11329;BME280;5719;42.714;23.732;2024-01-30T03:39:44;96275.44;;;-1.61;71.56
11329;BME280;5719;42.714;23.732;2024-01-30T03:42:11;96278.00;;;-1.53;71.22
11329;BME280;5719;42.714;23.732;2024-01-30T03:44:38;96266.97;;;-1.63;71.55
11329;BME280;5719;42.714;23.732;2024-01-30T03:47:06;96275.44;;;-1.62;72.12
11329;BME280;5719;42.714;23.732;2024-01-30T03:49:33;96271.19;;;-1.63;72.41
11329;BME280;5719;42.714;23.732;2024-01-30T03:51:59;96273.72;;;-1.66;72.68
11329;BME280;5719;42.714;23.732;2024-01-30T03:54:26;96270.34;;;-1.67;72.09
11329;BME280;5719;42.714;23.732;2024-01-30T03:56:53;96273.72;;;-1.60;72.07
11329;BME280;5719;42.714;23.732;2024-01-30T03:59:20;96266.16;;;-1.54;71.72
11329;BME280;5719;42.714;23.732;2024-01-30T04:01:49;96265.28;;;-1.68;71.50
11329;BME280;5719;42.714;23.732;2024-01-30T04:04:17;96266.09;;;-1.72;71.51
11329;BME280;5719;42.714;23.732;2024-01-30T04:06:44;96271.19;;;-1.68;70.59
11329;BME280;5719;42.714;23.732;2024-01-30T04:09:11;96273.72;;;-1.69;71.20
11329;BME280;5719;42.714;23.732;2024-01-30T04:11:38;96265.28;;;-1.68;70.15
11329;BME280;5719;42.714;23.732;2024-01-30T04:14:05;96272.88;;;-1.70;69.61
11329;BME280;5719;42.714;23.732;2024-01-30T04:16:32;96276.22;;;-1.71;70.41
11329;BME280;5719;42.714;23.732;2024-01-30T04:18:58;96272.00;;;-1.73;69.88
11329;BME280;5719;42.714;23.732;2024-01-30T04:21:27;96278.75;;;-1.77;70.93
11329;BME280;5719;42.714;23.732;2024-01-30T04:23:53;96277.06;;;-1.82;71.19
11329;BME280;5719;42.714;23.732;2024-01-30T04:26:20;96274.50;;;-1.84;71.61
11329;BME280;5719;42.714;23.732;2024-01-30T04:28:47;96277.91;;;-1.80;71.36
11329;BME280;5719;42.714;23.732;2024-01-30T04:31:14;96272.81;;;-1.86;71.23
11329;BME280;5719;42.714;23.732;2024-01-30T04:33:40;96271.06;;;-1.95;71.97
11329;BME280;5719;42.714;23.732;2024-01-30T04:36:08;96276.97;;;-1.96;73.58
11329;BME280;5719;42.714;23.732;2024-01-30T04:38:37;96271.91;;;-1.94;73.38
11329;BME280;5719;42.714;23.732;2024-01-30T04:41:03;96291.28;;;-2.09;73.87
11329;BME280;5719;42.714;23.732;2024-01-30T04:43:30;96290.41;;;-2.11;73.92
11329;BME280;5719;42.714;23.732;2024-01-30T04:45:57;96285.38;;;-2.06;74.19
11329;BME280;5719;42.714;23.732;2024-01-30T04:48:24;96272.66;;;-2.11;73.89
11329;BME280;5719;42.714;23.732;2024-01-30T04:50:50;96298.03;;;-2.09;74.35
11329;BME280;5719;42.714;23.732;2024-01-30T04:53:17;96295.53;;;-2.05;74.84
11329;BME280;5719;42.714;23.732;2024-01-30T04:55:45;96297.22;;;-2.02;74.33
11329;BME280;5719;42.714;23.732;2024-01-30T04:58:12;96293.78;;;-2.12;76.46
11329;BME280;5719;42.714;23.732;2024-01-30T05:00:39;96300.59;;;-2.03;75.76
11329;BME280;5719;42.714;23.732;2024-01-30T05:03:06;96290.41;;;-2.08;76.50
11329;BME280;5719;42.714;23.732;2024-01-30T05:05:33;96300.59;;;-2.05;75.95
11329;BME280;5719;42.714;23.732;2024-01-30T05:07:59;96298.03;;;-2.09;77.01
11329;BME280;5719;42.714;23.732;2024-01-30T05:10:26;96300.53;;;-2.14;77.10
11329;BME280;5719;42.714;23.732;2024-01-30T05:12:55;96301.34;;;-2.19;77.39
11329;BME280;5719;42.714;23.732;2024-01-30T05:15:22;96304.75;;;-2.13;76.68
11329;BME280;5719;42.714;23.732;2024-01-30T05:17:48;96299.69;;;-2.10;76.31
11329;BME280;5719;42.714;23.732;2024-01-30T05:20:16;96305.59;;;-2.11;75.62
11329;BME280;5719;42.714;23.732;2024-01-30T05:22:43;96318.31;;;-2.03;75.52
11329;BME280;5719;42.714;23.732;2024-01-30T05:25:11;96327.59;;;-2.07;75.88
11329;BME280;5719;42.714;23.732;2024-01-30T05:27:38;96332.63;;;-2.11;76.31
11329;BME280;5719;42.714;23.732;2024-01-30T05:30:08;96322.53;;;-2.04;76.21
11329;BME280;5719;42.714;23.732;2024-01-30T05:32:34;96322.59;;;-1.98;74.89
11329;BME280;5719;42.714;23.732;2024-01-30T05:35:01;96320.06;;;-1.94;74.59
11329;BME280;5719;42.714;23.732;2024-01-30T05:37:28;96325.97;;;-1.92;75.48
11329;BME280;5719;42.714;23.732;2024-01-30T05:39:55;96319.25;;;-1.90;74.76
11329;BME280;5719;42.714;23.732;2024-01-30T05:42:23;96322.56;;;-1.99;75.15
11329;BME280;5719;42.714;23.732;2024-01-30T05:44:50;96325.97;;;-1.92;75.19
11329;BME280;5719;42.714;23.732;2024-01-30T05:47:18;96314.16;;;-1.92;74.56
11329;BME280;5719;42.714;23.732;2024-01-30T05:49:44;96324.31;;;-1.93;75.31
11329;BME280;5719;42.714;23.732;2024-01-30T05:52:11;96331.03;;;-1.92;75.16
11329;BME280;5719;42.714;23.732;2024-01-30T05:54:38;96323.44;;;-1.97;75.02
11329;BME280;5719;42.714;23.732;2024-01-30T05:57:05;96325.16;;;-1.91;74.72
11329;BME280;5719;42.714;23.732;2024-01-30T05:59:32;96291.28;;;-2.09;75.60
11329;BME280;5719;42.714;23.732;2024-01-30T06:01:59;96318.44;;;-1.86;73.95
11329;BME280;5719;42.714;23.732;2024-01-30T06:04:27;96316.75;;;-1.83;73.88
11329;BME280;5719;42.714;23.732;2024-01-30T06:06:54;96335.41;;;-1.69;73.91
11329;BME280;5719;42.714;23.732;2024-01-30T06:09:21;96328.72;;;-1.55;73.62
11329;BME280;5719;42.714;23.732;2024-01-30T06:11:47;96334.66;;;-1.48;73.78
11329;BME280;5719;42.714;23.732;2024-01-30T06:14:14;96332.97;;;-1.41;72.26
11329;BME280;5719;42.714;23.732;2024-01-30T06:16:41;96327.97;;;-1.25;71.09
11329;BME280;5719;42.714;23.732;2024-01-30T06:19:08;96333.09;;;-1.07;71.52
11329;BME280;5719;42.714;23.732;2024-01-30T06:21:36;96320.47;;;-0.81;69.94
11329;BME280;5719;42.714;23.732;2024-01-30T06:24:04;96322.16;;;-0.69;69.63
11329;BME280;5719;42.714;23.732;2024-01-30T06:26:30;96324.72;;;-0.53;67.42
11329;BME280;5719;42.714;23.732;2024-01-30T06:28:57;96328.94;;;-0.30;67.26
11329;BME280;5719;42.714;23.732;2024-01-30T06:31:24;96332.31;;;0.07;67.07
11329;BME280;5719;42.714;23.732;2024-01-30T06:33:51;96328.03;;;0.12;64.97
11329;BME280;5719;42.714;23.732;2024-01-30T06:36:17;96333.91;;;0.33;64.64
11329;BME280;5719;42.714;23.732;2024-01-30T06:38:45;96321.97;;;0.55;62.69
11329;BME280;5719;42.714;23.732;2024-01-30T06:41:12;96329.50;;;0.82;62.85
11329;BME280;5719;42.714;23.732;2024-01-30T06:43:39;96327.72;;;0.99;60.34
11329;BME280;5719;42.714;23.732;2024-01-30T06:46:06;96324.41;;;0.82;60.24
11329;BME280;5719;42.714;23.732;2024-01-30T06:48:33;96295.56;;;0.83;60.68
11329;BME280;5719;42.714;23.732;2024-01-30T06:51:00;96325.06;;;1.18;59.35
11329;BME280;5719;42.714;23.732;2024-01-30T06:53:26;96330.19;;;1.16;58.80
11329;BME280;5719;42.714;23.732;2024-01-30T06:55:54;96340.47;;;0.93;60.06
11329;BME280;5719;42.714;23.732;2024-01-30T06:58:21;96342.94;;;1.07;59.27
11329;BME280;5719;42.714;23.732;2024-01-30T07:00:48;96339.56;;;1.04;60.48
11329;BME280;5719;42.714;23.732;2024-01-30T07:03:15;96339.56;;;1.04;59.78
11329;BME280;5719;42.714;23.732;2024-01-30T07:05:42;96337.78;;;1.24;58.99
11329;BME280;5719;42.714;23.732;2024-01-30T07:08:09;96335.97;;;1.35;58.13
11329;BME280;5719;42.714;23.732;2024-01-30T07:10:36;96329.00;;;1.63;57.88
11329;BME280;5719;42.714;23.732;2024-01-30T07:13:04;96327.22;;;1.72;56.78
11329;BME280;5719;42.714;23.732;2024-01-30T07:15:31;96333.75;;;2.04;56.56
11329;BME280;5719;42.714;23.732;2024-01-30T07:17:58;96325.03;;;2.23;54.68
11329;BME280;5719;42.714;23.732;2024-01-30T07:20:25;96325.00;;;2.27;54.95
11329;BME280;5719;42.714;23.732;2024-01-30T07:22:52;96329.25;;;2.27;54.44
11329;BME280;5719;42.714;23.732;2024-01-30T07:25:18;96315.69;;;2.25;53.90
11329;BME280;5719;42.714;23.732;2024-01-30T07:27:47;96323.19;;;2.38;53.58
11329;BME280;5719;42.714;23.732;2024-01-30T07:30:15;96318.81;;;2.48;53.70
11329;BME280;5719;42.714;23.732;2024-01-30T07:32:42;96324.59;;;2.64;53.40
11329;BME280;5719;42.714;23.732;2024-01-30T07:35:09;96333.03;;;2.70;53.28
11329;BME280;5719;42.714;23.732;2024-01-30T07:37:36;96327.88;;;2.73;52.48
11329;BME280;5719;42.714;23.732;2024-01-30T07:40:04;96327.00;;;2.74;52.83
11329;BME280;5719;42.714;23.732;2024-01-30T07:42:32;96327.59;;;2.97;52.71
11329;BME280;5719;42.714;23.732;2024-01-30T07:44:59;96329.38;;;2.91;52.53
11329;BME280;5719;42.714;23.732;2024-01-30T07:47:27;96326.22;;;2.72;52.61
11329;BME280;5719;42.714;23.732;2024-01-30T07:49:54;96318.00;;;2.47;54.61
11329;BME280;5719;42.714;23.732;2024-01-30T07:52:20;96325.03;;;2.97;54.46
11329;BME280;5719;42.714;23.732;2024-01-30T07:54:50;96312.34;;;3.51;52.79
11329;BME280;5719;42.714;23.732;2024-01-30T07:57:17;96317.50;;;3.50;51.81
11329;BME280;5719;42.714;23.732;2024-01-30T07:59:44;96317.34;;;3.57;51.92
11329;BME280;5719;42.714;23.732;2024-01-30T08:02:12;96318.13;;;3.62;52.61
11329;BME280;5719;42.714;23.732;2024-01-30T08:04:40;96309.34;;;3.78;51.99
11329;BME280;5719;42.714;23.732;2024-01-30T08:07:07;96317.72;;;3.86;51.40
11329;BME280;5719;42.714;23.732;2024-01-30T08:09:34;96319.97;;;4.06;50.87
11329;BME280;5719;42.714;23.732;2024-01-30T08:12:01;96323.41;;;4.04;50.60
11329;BME280;5719;42.714;23.732;2024-01-30T08:14:28;96322.81;;;3.89;51.44
11329;BME280;5719;42.714;23.732;2024-01-30T08:16:54;96318.38;;;4.45;50.00
11329;BME280;5719;42.714;23.732;2024-01-30T08:19:21;96323.28;;;4.57;50.38
11329;BME280;5719;42.714;23.732;2024-01-30T08:21:49;96336.97;;;4.56;51.13
11329;BME280;5719;42.714;23.732;2024-01-30T08:24:16;96332.81;;;4.93;48.65
11329;BME280;5719;42.714;23.732;2024-01-30T08:26:43;96326.50;;;5.10;48.96
11329;BME280;5719;42.714;23.732;2024-01-30T08:29:11;96327.91;;;4.81;49.72
11329;BME280;5719;42.714;23.732;2024-01-30T08:31:38;96327.41;;;4.66;51.10
11329;BME280;5719;42.714;23.732;2024-01-30T08:34:05;96320.66;;;4.62;51.37
11329;BME280;5719;42.714;23.732;2024-01-30T08:36:32;96332.75;;;4.97;50.52
11329;BME280;5719;42.714;23.732;2024-01-30T08:39:00;96334.66;;;4.87;50.25
11329;BME280;5719;42.714;23.732;2024-01-30T08:41:27;96339.50;;;4.99;51.10
11329;BME280;5719;42.714;23.732;2024-01-30T08:43:54;96340.91;;;5.14;49.42
11329;BME280;5719;42.714;23.732;2024-01-30T08:46:20;96340.41;;;5.38;49.03
11329;BME280;5719;42.714;23.732;2024-01-30T08:48:47;96330.06;;;5.41;48.75
11329;BME280;5719;42.714;23.732;2024-01-30T08:51:14;96337.81;;;5.76;48.18
11329;BME280;5719;42.714;23.732;2024-01-30T08:53:41;96326.19;;;5.99;48.00
11329;BME280;5719;42.714;23.732;2024-01-30T08:56:09;96342.81;;;6.18;48.44
11329;BME280;5719;42.714;23.732;2024-01-30T08:58:36;96331.56;;;6.56;47.07
11329;BME280;5719;42.714;23.732;2024-01-30T09:01:03;96325.63;;;6.54;46.45
11329;BME280;5719;42.714;23.732;2024-01-30T09:03:31;96330.47;;;6.95;45.28
11329;BME280;5719;42.714;23.732;2024-01-30T09:05:57;96326.25;;;6.29;46.42
11329;BME280;5719;42.714;23.732;2024-01-30T09:08:24;96336.34;;;6.37;48.20
11329;BME280;5719;42.714;23.732;2024-01-30T09:10:51;96317.03;;;6.55;46.61
11329;BME280;5719;42.714;23.732;2024-01-30T09:13:19;96328.72;;;6.66;45.52
11329;BME280;5719;42.714;23.732;2024-01-30T09:15:46;96317.13;;;7.12;44.95
11329;BME280;5719;42.714;23.732;2024-01-30T09:18:13;96326.50;;;7.42;43.79
11329;BME280;5719;42.714;23.732;2024-01-30T09:20:39;96316.31;;;7.39;45.57
11329;BME280;5719;42.714;23.732;2024-01-30T09:23:06;96325.16;;;7.58;45.04
11329;BME280;5719;42.714;23.732;2024-01-30T09:25:33;96318.91;;;7.39;45.00
11329;BME280;5719;42.714;23.732;2024-01-30T09:28:00;96323.34;;;7.32;44.55
11329;BME280;5719;42.714;23.732;2024-01-30T09:30:28;96325.38;;;7.51;44.32
11329;BME280;5719;42.714;23.732;2024-01-30T09:32:55;96316.88;;;6.92;45.39
11329;BME280;5719;42.714;23.732;2024-01-30T09:35:22;96322.81;;;7.21;46.44
11329;BME280;5719;42.714;23.732;2024-01-30T09:37:49;96327.75;;;7.29;44.00
11329;BME280;5719;42.714;23.732;2024-01-30T09:40:17;96331.56;;;7.45;45.00
11329;BME280;5719;42.714;23.732;2024-01-30T09:42:46;96327.34;;;7.70;44.04
11329;BME280;5719;42.714;23.732;2024-01-30T09:45:14;96330.63;;;7.75;43.92
11329;BME280;5719;42.714;23.732;2024-01-30T09:47:43;96313.59;;;7.71;43.66
11329;BME280;5719;42.714;23.732;2024-01-30T09:50:12;96313.66;;;7.42;43.73
11329;BME280;5719;42.714;23.732;2024-01-30T09:52:39;96324.75;;;7.72;44.02
11329;BME280;5719;42.714;23.732;2024-01-30T09:55:07;96292.22;;;8.20;42.81
11329;BME280;5719;42.714;23.732;2024-01-30T09:57:34;96307.50;;;8.26;42.52
11329;BME280;5719;42.714;23.732;2024-01-30T10:00:01;96302.00;;;8.11;43.58
11329;BME280;5719;42.714;23.732;2024-01-30T10:02:28;96303.13;;;7.50;43.26
11329;BME280;5719;42.714;23.732;2024-01-30T10:04:56;96301.16;;;7.30;43.11
11329;BME280;5719;42.714;23.732;2024-01-30T10:07:23;96308.19;;;6.96;43.65
11329;BME280;5719;42.714;23.732;2024-01-30T10:09:50;96309.44;;;6.50;45.73
11329;BME280;5719;42.714;23.732;2024-01-30T10:12:17;96296.81;;;6.09;45.88
11329;BME280;5719;42.714;23.732;2024-01-30T10:14:44;96293.28;;;6.14;46.87
11329;BME280;5719;42.714;23.732;2024-01-30T10:17:11;96307.16;;;6.70;45.23
11329;BME280;5719;42.714;23.732;2024-01-30T10:19:39;96274.56;;;6.72;45.84
11329;BME280;5719;42.714;23.732;2024-01-30T10:22:09;96310.84;;;6.62;44.80
11329;BME280;5719;42.714;23.732;2024-01-30T10:24:36;96302.94;;;6.68;45.25
11329;BME280;5719;42.714;23.732;2024-01-30T10:27:05;96302.34;;;6.89;44.66
11329;BME280;5719;42.714;23.732;2024-01-30T10:29:32;96295.69;;;7.11;44.04
11329;BME280;5719;42.714;23.732;2024-01-30T10:31:59;96300.88;;;7.39;44.01
11329;BME280;5719;42.714;23.732;2024-01-30T10:34:26;96310.22;;;7.14;43.98
11329;BME280;5719;42.714;23.732;2024-01-30T10:36:59;96301.81;;;7.64;42.86
11329;BME280;5719;42.714;23.732;2024-01-30T10:39:29;96298.56;;;7.85;42.05
11329;BME280;5719;42.714;23.732;2024-01-30T10:42:00;96293.75;;;8.01;40.67
11329;BME280;5719;42.714;23.732;2024-01-30T10:44:36;96300.66;;;7.73;40.83
11329;BME280;5719;42.714;23.732;2024-01-30T10:47:06;96296.72;;;7.89;42.08
11329;BME280;5719;42.714;23.732;2024-01-30T10:49:39;96280.50;;;8.12;41.78
11329;BME280;5719;42.714;23.732;2024-01-30T10:52:08;96281.56;;;7.54;41.85
11329;BME280;5719;42.714;23.732;2024-01-30T10:54:37;96293.59;;;7.53;42.23
11329;BME280;5719;42.714;23.732;2024-01-30T10:57:07;96282.72;;;7.16;43.08
11329;BME280;5719;42.714;23.732;2024-01-30T10:59:36;96289.44;;;7.48;44.92
11329;BME280;5719;42.714;23.732;2024-01-30T11:02:03;96280.81;;;8.03;42.39
11329;BME280;5719;42.714;23.732;2024-01-30T11:04:36;96278.56;;;8.18;42.10
11329;BME280;5719;42.714;23.732;2024-01-30T11:07:16;96272.31;;;8.01;42.77
11329;BME280;5719;42.714;23.732;2024-01-30T11:09:50;96267.81;;;8.32;41.89
11329;BME280;5719;42.714;23.732;2024-01-30T11:12:21;96255.75;;;8.57;40.91
11329;BME280;5719;42.714;23.732;2024-01-30T11:14:48;96261.25;;;9.18;41.94
11329;BME280;5719;42.714;23.732;2024-01-30T11:17:15;96251.44;;;9.04;38.74
11329;BME280;5719;42.714;23.732;2024-01-30T11:19:43;96259.13;;;8.34;40.31
11329;BME280;5719;42.714;23.732;2024-01-30T11:22:10;96262.97;;;8.48;39.83
11329;BME280;5719;42.714;23.732;2024-01-30T11:24:39;96260.97;;;8.31;40.56
11329;BME280;5719;42.714;23.732;2024-01-30T11:27:09;96271.59;;;7.96;41.79
11329;BME280;5719;42.714;23.732;2024-01-30T11:29:36;96255.91;;;8.53;41.19
11329;BME280;5719;42.714;23.732;2024-01-30T11:32:02;96262.78;;;8.29;41.68
11329;BME280;5719;42.714;23.732;2024-01-30T11:34:32;96269.28;;;7.88;41.20
11329;BME280;5719;42.714;23.732;2024-01-30T11:37:03;96262.25;;;8.18;41.78
11329;BME280;5719;42.714;23.732;2024-01-30T11:39:30;96260.47;;;8.20;40.00
11329;BME280;5719;42.714;23.732;2024-01-30T11:41:59;96259.25;;;8.31;42.00
11329;BME280;5719;42.714;23.732;2024-01-30T11:44:27;96251.22;;;8.14;40.06
11329;BME280;5719;42.714;23.732;2024-01-30T11:46:54;96246.69;;;8.94;40.51
11329;BME280;5719;42.714;23.732;2024-01-30T11:49:21;96251.16;;;9.33;39.79
11329;BME280;5719;42.714;23.732;2024-01-30T11:51:48;96254.34;;;9.83;37.98
11329;BME280;5719;42.714;23.732;2024-01-30T11:54:15;96249.28;;;9.80;38.52
11329;BME280;5719;42.714;23.732;2024-01-30T11:56:42;96248.97;;;9.46;37.71
11329;BME280;5719;42.714;23.732;2024-01-30T11:59:09;96250.69;;;9.01;39.50
11329;BME280;5719;42.714;23.732;2024-01-30T12:01:37;96239.16;;;8.41;39.98
11329;BME280;5719;42.714;23.732;2024-01-30T12:04:04;96240.09;;;8.63;41.19
11329;BME280;5719;42.714;23.732;2024-01-30T12:06:34;96248.66;;;8.87;39.10
11329;BME280;5719;42.714;23.732;2024-01-30T12:09:02;96238.56;;;8.08;41.52
11329;BME280;5719;42.714;23.732;2024-01-30T12:11:30;96235.63;;;8.19;41.56
11329;BME280;5719;42.714;23.732;2024-01-30T12:13:57;96229.84;;;8.37;41.86
11329;BME280;5719;42.714;23.732;2024-01-30T12:16:24;96232.38;;;8.38;41.84
11329;BME280;5719;42.714;23.732;2024-01-30T12:19:00;96226.59;;;7.81;43.48
11329;BME280;5719;42.714;23.732;2024-01-30T12:21:28;96213.91;;;8.01;42.94
11329;BME280;5719;42.714;23.732;2024-01-30T12:23:56;96200.44;;;8.18;42.05
11329;BME280;5719;42.714;23.732;2024-01-30T12:26:23;96217.88;;;8.10;42.88
11329;BME280;5719;42.714;23.732;2024-01-30T12:28:51;96215.34;;;8.58;41.58
11329;BME280;5719;42.714;23.732;2024-01-30T12:31:25;96208.00;;;8.47;41.59
11329;BME280;5719;42.714;23.732;2024-01-30T12:33:52;96186.25;;;8.06;42.06
11329;BME280;5719;42.714;23.732;2024-01-30T12:36:20;96203.06;;;8.64;41.48
11329;BME280;5719;42.714;23.732;2024-01-30T12:38:47;96204.66;;;9.13;39.80
11329;BME280;5719;42.714;23.732;2024-01-30T12:41:14;96197.50;;;8.28;40.79
11329;BME280;5719;42.714;23.732;2024-01-30T12:43:41;96206.13;;;8.03;42.60
11329;BME280;5719;42.714;23.732;2024-01-30T12:46:08;96198.75;;;7.41;43.02
11329;BME280;5719;42.714;23.732;2024-01-30T12:48:35;96205.59;;;7.68;42.44
11329;BME280;5719;42.714;23.732;2024-01-30T12:51:03;96205.28;;;7.25;43.60
11329;BME280;5719;42.714;23.732;2024-01-30T12:53:32;96200.56;;;7.90;43.40
11329;BME280;5719;42.714;23.732;2024-01-30T12:55:59;96200.56;;;8.15;42.56
11329;BME280;5719;42.714;23.732;2024-01-30T12:58:26;96193.22;;;8.29;41.37
11329;BME280;5719;42.714;23.732;2024-01-30T13:00:53;96173.56;;;8.25;41.63
11329;BME280;5719;42.714;23.732;2024-01-30T13:03:20;96187.97;;;8.06;43.06
11329;BME280;5719;42.714;23.732;2024-01-30T13:05:48;96186.00;;;7.64;42.46